sensor_id;sensor_type;location;lat;lon;timestamp;P1;durP1;ratioP1;P2;durP2;ratioP2
54454;SDS011;40364;52.270;10.546;2023-07-31T00:01:27;5.90;;;1.50;;
54454;SDS011;40364;52.270;10.546;2023-07-31T00:03:53;4.13;;;1.42;;
54454;SDS011;40364;52.270;10.546;2023-07-31T00:06:20;5.65;;;1.75;;
54454;SDS011;40364;52.270;10.546;2023-07-31T00:08:46;5.30;;;1.45;;
54454;SDS011;40364;52.270;10.546;2023-07-31T00:11:12;4.57;;;1.63;;
54454;SDS011;40364;52.270;10.546;2023-07-31T00:13:40;4.85;;;1.83;;
54454;SDS011;40364;52.270;10.546;2023-07-31T00:16:07;4.25;;;1.55;;
54454;SDS011;40364;52.270;10.546;2023-07-31T00:18:33;6.15;;;1.85;;
54454;SDS011;40364;52.270;10.546;2023-07-31T00:20:59;4.40;;;1.58;;
54454;SDS011;40364;52.270;10.546;2023-07-31T00:23:26;2.63;;;1.60;;
54454;SDS011;40364;52.270;10.546;2023-07-31T00:25:52;7.45;;;2.28;;
54454;SDS011;40364;52.270;10.546;2023-07-31T00:28:19;4.75;;;1.58;;
54454;SDS011;40364;52.270;10.546;2023-07-31T00:30:46;3.95;;;1.60;;
54454;SDS011;40364;52.270;10.546;2023-07-31T00:33:13;3.72;;;1.75;;
54454;SDS011;40364;52.270;10.546;2023-07-31T00:35:39;6.75;;;1.60;;
54454;SDS011;40364;52.270;10.546;2023-07-31T00:38:05;2.72;;;1.40;;
54454;SDS011;40364;52.270;10.546;2023-07-31T00:40:34;8.18;;;1.60;;
54454;SDS011;40364;52.270;10.546;2023-07-31T00:43:00;7.60;;;1.70;;
54454;SDS011;40364;52.270;10.546;2023-07-31T00:45:27;7.22;;;1.50;;
54454;SDS011;40364;52.270;10.546;2023-07-31T00:47:55;3.33;;;1.30;;
54454;SDS011;40364;52.270;10.546;2023-07-31T00:50:22;5.82;;;1.98;;
54454;SDS011;40364;52.270;10.546;2023-07-31T00:52:48;5.75;;;1.60;;
54454;SDS011;40364;52.270;10.546;2023-07-31T00:55:15;3.85;;;1.20;;
54454;SDS011;40364;52.270;10.546;2023-07-31T00:57:41;4.72;;;1.40;;
54454;SDS011;40364;52.270;10.546;2023-07-31T01:00:08;6.13;;;1.50;;
54454;SDS011;40364;52.270;10.546;2023-07-31T01:02:35;4.03;;;1.42;;
54454;SDS011;40364;52.270;10.546;2023-07-31T01:05:03;5.35;;;1.83;;
54454;SDS011;40364;52.270;10.546;2023-07-31T01:07:31;6.35;;;1.58;;
54454;SDS011;40364;52.270;10.546;2023-07-31T01:10:02;6.65;;;1.80;;
54454;SDS011;40364;52.270;10.546;2023-07-31T01:12:30;5.45;;;1.67;;
54454;SDS011;40364;52.270;10.546;2023-07-31T01:15:04;3.85;;;1.63;;
54454;SDS011;40364;52.270;10.546;2023-07-31T01:17:30;2.75;;;1.60;;
54454;SDS011;40364;52.270;10.546;2023-07-31T01:19:58;6.70;;;1.60;;
54454;SDS011;40364;52.270;10.546;2023-07-31T01:22:44;3.50;;;1.63;;
54454;SDS011;40364;52.270;10.546;2023-07-31T01:25:16;3.20;;;1.40;;
54454;SDS011;40364;52.270;10.546;2023-07-31T01:27:50;5.05;;;1.77;;
54454;SDS011;40364;52.270;10.546;2023-07-31T01:30:19;6.13;;;1.30;;
54454;SDS011;40364;52.270;10.546;2023-07-31T01:32:46;2.95;;;1.55;;
54454;SDS011;40364;52.270;10.546;2023-07-31T01:35:13;4.40;;;2.22;;
54454;SDS011;40364;52.270;10.546;2023-07-31T01:37:40;4.55;;;1.55;;
54454;SDS011;40364;52.270;10.546;2023-07-31T01:40:07;3.65;;;1.38;;
54454;SDS011;40364;52.270;10.546;2023-07-31T01:42:34;6.82;;;1.48;;
54454;SDS011;40364;52.270;10.546;2023-07-31T01:45:01;6.38;;;1.23;;
54454;SDS011;40364;52.270;10.546;2023-07-31T01:47:28;7.30;;;2.28;;
54454;SDS011;40364;52.270;10.546;2023-07-31T01:49:54;2.65;;;1.58;;
54454;SDS011;40364;52.270;10.546;2023-07-31T01:52:21;2.97;;;1.20;;
54454;SDS011;40364;52.270;10.546;2023-07-31T01:54:47;8.35;;;1.70;;
54454;SDS011;40364;52.270;10.546;2023-07-31T01:57:14;4.07;;;1.33;;
54454;SDS011;40364;52.270;10.546;2023-07-31T01:59:40;3.08;;;1.15;;
54454;SDS011;40364;52.270;10.546;2023-07-31T02:02:08;3.13;;;1.02;;
54454;SDS011;40364;52.270;10.546;2023-07-31T02:04:34;2.45;;;1.05;;
54454;SDS011;40364;52.270;10.546;2023-07-31T02:07:00;2.63;;;1.10;;
54454;SDS011;40364;52.270;10.546;2023-07-31T02:09:27;4.80;;;1.35;;
54454;SDS011;40364;52.270;10.546;2023-07-31T02:11:53;3.58;;;1.90;;
54454;SDS011;40364;52.270;10.546;2023-07-31T02:14:20;4.90;;;1.70;;
54454;SDS011;40364;52.270;10.546;2023-07-31T02:16:46;2.67;;;1.80;;
54454;SDS011;40364;52.270;10.546;2023-07-31T02:19:14;3.65;;;1.60;;
54454;SDS011;40364;52.270;10.546;2023-07-31T02:21:40;4.82;;;1.80;;
54454;SDS011;40364;52.270;10.546;2023-07-31T02:24:07;2.72;;;1.70;;
54454;SDS011;40364;52.270;10.546;2023-07-31T02:26:33;2.92;;;1.33;;
54454;SDS011;40364;52.270;10.546;2023-07-31T02:28:59;7.32;;;1.60;;
54454;SDS011;40364;52.270;10.546;2023-07-31T02:31:26;3.63;;;1.42;;
54454;SDS011;40364;52.270;10.546;2023-07-31T02:33:52;1.88;;;1.30;;
54454;SDS011;40364;52.270;10.546;2023-07-31T02:36:20;2.25;;;1.20;;
54454;SDS011;40364;52.270;10.546;2023-07-31T02:38:46;2.65;;;1.30;;
54454;SDS011;40364;52.270;10.546;2023-07-31T02:41:13;1.48;;;0.93;;
54454;SDS011;40364;52.270;10.546;2023-07-31T02:43:39;2.13;;;1.20;;
54454;SDS011;40364;52.270;10.546;2023-07-31T02:46:06;2.60;;;1.05;;
54454;SDS011;40364;52.270;10.546;2023-07-31T02:48:32;3.85;;;1.30;;
54454;SDS011;40364;52.270;10.546;2023-07-31T02:50:58;5.30;;;1.30;;
54454;SDS011;40364;52.270;10.546;2023-07-31T02:53:26;2.20;;;1.30;;
54454;SDS011;40364;52.270;10.546;2023-07-31T02:55:52;2.50;;;1.38;;
54454;SDS011;40364;52.270;10.546;2023-07-31T02:58:19;1.88;;;1.17;;
54454;SDS011;40364;52.270;10.546;2023-07-31T03:00:45;1.30;;;1.20;;
54454;SDS011;40364;52.270;10.546;2023-07-31T03:03:12;2.80;;;1.70;;
54454;SDS011;40364;52.270;10.546;2023-07-31T03:05:38;2.38;;;1.60;;
54454;SDS011;40364;52.270;10.546;2023-07-31T03:08:04;3.08;;;1.73;;
54454;SDS011;40364;52.270;10.546;2023-07-31T03:10:32;2.65;;;1.98;;
54454;SDS011;40364;52.270;10.546;2023-07-31T03:12:59;4.47;;;1.60;;
54454;SDS011;40364;52.270;10.546;2023-07-31T03:15:25;4.55;;;1.90;;
54454;SDS011;40364;52.270;10.546;2023-07-31T03:17:51;3.65;;;1.90;;
54454;SDS011;40364;52.270;10.546;2023-07-31T03:20:18;3.15;;;2.03;;
54454;SDS011;40364;52.270;10.546;2023-07-31T03:22:44;5.30;;;1.85;;
54454;SDS011;40364;52.270;10.546;2023-07-31T03:25:10;3.38;;;2.00;;
54454;SDS011;40364;52.270;10.546;2023-07-31T03:27:39;4.32;;;2.10;;
54454;SDS011;40364;52.270;10.546;2023-07-31T03:30:06;5.05;;;2.15;;
54454;SDS011;40364;52.270;10.546;2023-07-31T03:32:32;3.30;;;2.20;;
54454;SDS011;40364;52.270;10.546;2023-07-31T03:34:59;5.65;;;2.35;;
54454;SDS011;40364;52.270;10.546;2023-07-31T03:37:25;2.95;;;2.00;;
54454;SDS011;40364;52.270;10.546;2023-07-31T03:39:52;6.13;;;2.17;;
54454;SDS011;40364;52.270;10.546;2023-07-31T03:42:18;3.33;;;1.92;;
54454;SDS011;40364;52.270;10.546;2023-07-31T03:44:46;3.67;;;1.67;;
54454;SDS011;40364;52.270;10.546;2023-07-31T03:47:13;5.97;;;2.13;;
54454;SDS011;40364;52.270;10.546;2023-07-31T03:49:39;4.35;;;1.90;;
54454;SDS011;40364;52.270;10.546;2023-07-31T03:52:06;4.18;;;1.77;;
54454;SDS011;40364;52.270;10.546;2023-07-31T03:54:32;3.35;;;1.90;;
54454;SDS011;40364;52.270;10.546;2023-07-31T03:56:59;5.35;;;2.05;;
54454;SDS011;40364;52.270;10.546;2023-07-31T03:59:25;4.78;;;1.70;;
54454;SDS011;40364;52.270;10.546;2023-07-31T04:01:53;3.90;;;1.75;;
54454;SDS011;40364;52.270;10.546;2023-07-31T04:04:19;4.25;;;1.55;;
54454;SDS011;40364;52.270;10.546;2023-07-31T04:06:46;3.47;;;1.02;;
54454;SDS011;40364;52.270;10.546;2023-07-31T04:09:12;4.50;;;1.48;;
54454;SDS011;40364;52.270;10.546;2023-07-31T04:11:38;2.63;;;1.30;;
54454;SDS011;40364;52.270;10.546;2023-07-31T04:14:05;3.05;;;1.42;;
54454;SDS011;40364;52.270;10.546;2023-07-31T04:16:31;4.88;;;1.30;;
54454;SDS011;40364;52.270;10.546;2023-07-31T04:18:59;7.15;;;1.55;;
54454;SDS011;40364;52.270;10.546;2023-07-31T04:21:25;4.32;;;1.30;;
54454;SDS011;40364;52.270;10.546;2023-07-31T04:23:52;2.58;;;1.30;;
54454;SDS011;40364;52.270;10.546;2023-07-31T04:26:20;3.47;;;1.70;;
54454;SDS011;40364;52.270;10.546;2023-07-31T04:28:47;3.22;;;1.10;;
54454;SDS011;40364;52.270;10.546;2023-07-31T04:31:13;3.65;;;1.35;;
54454;SDS011;40364;52.270;10.546;2023-07-31T04:33:40;2.88;;;1.38;;
54454;SDS011;40364;52.270;10.546;2023-07-31T04:36:07;4.63;;;1.60;;
54454;SDS011;40364;52.270;10.546;2023-07-31T04:38:34;4.38;;;1.30;;
54454;SDS011;40364;52.270;10.546;2023-07-31T04:41:09;5.00;;;1.38;;
54454;SDS011;40364;52.270;10.546;2023-07-31T04:43:38;3.20;;;1.35;;
54454;SDS011;40364;52.270;10.546;2023-07-31T04:46:06;3.22;;;1.30;;
54454;SDS011;40364;52.270;10.546;2023-07-31T04:48:32;2.42;;;1.45;;
54454;SDS011;40364;52.270;10.546;2023-07-31T04:50:58;2.85;;;1.20;;
54454;SDS011;40364;52.270;10.546;2023-07-31T04:53:26;1.98;;;1.13;;
54454;SDS011;40364;52.270;10.546;2023-07-31T04:55:52;2.38;;;1.33;;
54454;SDS011;40364;52.270;10.546;2023-07-31T04:58:19;1.40;;;1.05;;
54454;SDS011;40364;52.270;10.546;2023-07-31T05:00:45;2.35;;;1.10;;
54454;SDS011;40364;52.270;10.546;2023-07-31T05:03:12;1.52;;;0.80;;
54454;SDS011;40364;52.270;10.546;2023-07-31T05:05:38;2.17;;;1.05;;
54454;SDS011;40364;52.270;10.546;2023-07-31T05:08:05;2.63;;;1.10;;
54454;SDS011;40364;52.270;10.546;2023-07-31T05:10:33;3.42;;;1.40;;
54454;SDS011;40364;52.270;10.546;2023-07-31T05:13:00;3.60;;;1.10;;
54454;SDS011;40364;52.270;10.546;2023-07-31T05:15:26;3.35;;;1.20;;
54454;SDS011;40364;52.270;10.546;2023-07-31T05:17:52;2.20;;;1.20;;
54454;SDS011;40364;52.270;10.546;2023-07-31T05:20:19;2.33;;;1.00;;
54454;SDS011;40364;52.270;10.546;2023-07-31T05:22:46;3.15;;;2.17;;
54454;SDS011;40364;52.270;10.546;2023-07-31T05:25:12;3.13;;;1.30;;
54454;SDS011;40364;52.270;10.546;2023-07-31T05:27:40;1.63;;;1.08;;
54454;SDS011;40364;52.270;10.546;2023-07-31T05:30:09;2.42;;;1.25;;
54454;SDS011;40364;52.270;10.546;2023-07-31T05:32:36;3.45;;;1.20;;
54454;SDS011;40364;52.270;10.546;2023-07-31T05:35:02;1.83;;;1.25;;
54454;SDS011;40364;52.270;10.546;2023-07-31T05:37:29;3.42;;;1.30;;
54454;SDS011;40364;52.270;10.546;2023-07-31T05:39:55;2.60;;;1.38;;
54454;SDS011;40364;52.270;10.546;2023-07-31T05:42:22;1.15;;;0.90;;
54454;SDS011;40364;52.270;10.546;2023-07-31T05:44:50;2.65;;;1.38;;
54454;SDS011;40364;52.270;10.546;2023-07-31T05:47:16;2.45;;;1.30;;
54454;SDS011;40364;52.270;10.546;2023-07-31T05:49:43;2.13;;;1.20;;
54454;SDS011;40364;52.270;10.546;2023-07-31T05:52:09;2.55;;;1.13;;
54454;SDS011;40364;52.270;10.546;2023-07-31T05:54:36;7.80;;;1.17;;
54454;SDS011;40364;52.270;10.546;2023-07-31T05:57:02;2.33;;;1.10;;
54454;SDS011;40364;52.270;10.546;2023-07-31T05:59:29;2.00;;;1.20;;
54454;SDS011;40364;52.270;10.546;2023-07-31T06:01:59;3.63;;;1.17;;
54454;SDS011;40364;52.270;10.546;2023-07-31T06:04:25;2.78;;;1.00;;
54454;SDS011;40364;52.270;10.546;2023-07-31T06:06:52;3.70;;;1.45;;
54454;SDS011;40364;52.270;10.546;2023-07-31T06:09:18;4.03;;;1.27;;
54454;SDS011;40364;52.270;10.546;2023-07-31T06:11:45;4.13;;;2.00;;
54454;SDS011;40364;52.270;10.546;2023-07-31T06:14:11;3.92;;;1.92;;
54454;SDS011;40364;52.270;10.546;2023-07-31T06:16:38;3.17;;;2.17;;
54454;SDS011;40364;52.270;10.546;2023-07-31T06:19:05;2.30;;;1.70;;
54454;SDS011;40364;52.270;10.546;2023-07-31T06:21:33;3.88;;;2.00;;
54454;SDS011;40364;52.270;10.546;2023-07-31T06:24:02;4.15;;;1.95;;
54454;SDS011;40364;52.270;10.546;2023-07-31T06:26:28;4.65;;;2.42;;
54454;SDS011;40364;52.270;10.546;2023-07-31T06:28:55;4.25;;;2.17;;
54454;SDS011;40364;52.270;10.546;2023-07-31T06:31:21;4.07;;;2.22;;
54454;SDS011;40364;52.270;10.546;2023-07-31T06:33:48;4.95;;;2.60;;
54454;SDS011;40364;52.270;10.546;2023-07-31T06:36:16;7.32;;;2.83;;
54454;SDS011;40364;52.270;10.546;2023-07-31T06:38:42;6.30;;;2.83;;
54454;SDS011;40364;52.270;10.546;2023-07-31T06:41:08;5.80;;;2.78;;
54454;SDS011;40364;52.270;10.546;2023-07-31T06:43:35;8.85;;;3.40;;
54454;SDS011;40364;52.270;10.546;2023-07-31T06:46:04;8.45;;;3.83;;
54454;SDS011;40364;52.270;10.546;2023-07-31T06:48:30;10.63;;;3.60;;
54454;SDS011;40364;52.270;10.546;2023-07-31T06:50:57;6.40;;;3.40;;
54454;SDS011;40364;52.270;10.546;2023-07-31T06:53:24;9.48;;;4.03;;
54454;SDS011;40364;52.270;10.546;2023-07-31T06:55:51;7.78;;;3.88;;
54454;SDS011;40364;52.270;10.546;2023-07-31T06:58:17;6.25;;;3.20;;
54454;SDS011;40364;52.270;10.546;2023-07-31T07:00:44;6.05;;;3.33;;
54454;SDS011;40364;52.270;10.546;2023-07-31T07:03:11;6.10;;;3.78;;
54454;SDS011;40364;52.270;10.546;2023-07-31T07:05:40;7.95;;;3.90;;
54454;SDS011;40364;52.270;10.546;2023-07-31T07:08:07;6.47;;;3.35;;
54454;SDS011;40364;52.270;10.546;2023-07-31T07:10:35;5.90;;;3.30;;
54454;SDS011;40364;52.270;10.546;2023-07-31T07:13:01;6.63;;;3.22;;
54454;SDS011;40364;52.270;10.546;2023-07-31T07:15:28;7.57;;;4.45;;
54454;SDS011;40364;52.270;10.546;2023-07-31T07:17:54;13.70;;;3.90;;
54454;SDS011;40364;52.270;10.546;2023-07-31T07:20:20;11.32;;;3.80;;
54454;SDS011;40364;52.270;10.546;2023-07-31T07:22:47;10.68;;;4.13;;
54454;SDS011;40364;52.270;10.546;2023-07-31T07:25:13;10.85;;;4.53;;
54454;SDS011;40364;52.270;10.546;2023-07-31T07:27:41;9.15;;;4.40;;
54454;SDS011;40364;52.270;10.546;2023-07-31T07:30:08;8.05;;;4.82;;
54454;SDS011;40364;52.270;10.546;2023-07-31T07:32:35;11.70;;;4.57;;
54454;SDS011;40364;52.270;10.546;2023-07-31T07:35:02;11.02;;;4.88;;
54454;SDS011;40364;52.270;10.546;2023-07-31T07:37:29;9.23;;;4.88;;
54454;SDS011;40364;52.270;10.546;2023-07-31T07:39:55;14.43;;;5.35;;
54454;SDS011;40364;52.270;10.546;2023-07-31T07:42:22;15.10;;;6.50;;
54454;SDS011;40364;52.270;10.546;2023-07-31T07:44:50;13.63;;;5.47;;
54454;SDS011;40364;52.270;10.546;2023-07-31T07:47:16;17.90;;;5.20;;
54454;SDS011;40364;52.270;10.546;2023-07-31T07:49:43;14.80;;;6.07;;
54454;SDS011;40364;52.270;10.546;2023-07-31T07:52:09;13.02;;;5.25;;
54454;SDS011;40364;52.270;10.546;2023-07-31T07:54:36;12.00;;;5.97;;
54454;SDS011;40364;52.270;10.546;2023-07-31T07:57:02;10.30;;;5.30;;
54454;SDS011;40364;52.270;10.546;2023-07-31T07:59:29;8.35;;;5.43;;
54454;SDS011;40364;52.270;10.546;2023-07-31T08:01:56;12.45;;;5.50;;
54454;SDS011;40364;52.270;10.546;2023-07-31T08:04:23;12.25;;;5.57;;
54454;SDS011;40364;52.270;10.546;2023-07-31T08:06:50;15.27;;;5.68;;
54454;SDS011;40364;52.270;10.546;2023-07-31T08:09:16;16.83;;;6.32;;
54454;SDS011;40364;52.270;10.546;2023-07-31T08:11:42;15.32;;;5.70;;
54454;SDS011;40364;52.270;10.546;2023-07-31T08:14:09;15.20;;;5.60;;
54454;SDS011;40364;52.270;10.546;2023-07-31T08:16:35;13.77;;;5.38;;
54454;SDS011;40364;52.270;10.546;2023-07-31T08:19:03;11.70;;;5.07;;
54454;SDS011;40364;52.270;10.546;2023-07-31T08:21:29;10.95;;;5.10;;
54454;SDS011;40364;52.270;10.546;2023-07-31T08:23:57;13.85;;;5.55;;
54454;SDS011;40364;52.270;10.546;2023-07-31T08:26:23;11.82;;;5.78;;
54454;SDS011;40364;52.270;10.546;2023-07-31T08:28:50;9.63;;;4.57;;
54454;SDS011;40364;52.270;10.546;2023-07-31T08:31:16;12.18;;;4.43;;
54454;SDS011;40364;52.270;10.546;2023-07-31T08:33:43;9.82;;;4.30;;
54454;SDS011;40364;52.270;10.546;2023-07-31T08:36:11;16.70;;;6.18;;
54454;SDS011;40364;52.270;10.546;2023-07-31T08:38:37;13.27;;;4.60;;
54454;SDS011;40364;52.270;10.546;2023-07-31T08:41:04;8.43;;;4.07;;
54454;SDS011;40364;52.270;10.546;2023-07-31T08:43:30;12.13;;;4.38;;
54454;SDS011;40364;52.270;10.546;2023-07-31T08:45:57;9.85;;;4.32;;
54454;SDS011;40364;52.270;10.546;2023-07-31T08:48:24;17.73;;;4.32;;
54454;SDS011;40364;52.270;10.546;2023-07-31T08:50:51;11.45;;;4.80;;
54454;SDS011;40364;52.270;10.546;2023-07-31T08:53:19;9.45;;;4.30;;
54454;SDS011;40364;52.270;10.546;2023-07-31T08:55:45;7.93;;;4.43;;
54454;SDS011;40364;52.270;10.546;2023-07-31T08:58:12;6.50;;;3.95;;
54454;SDS011;40364;52.270;10.546;2023-07-31T09:00:39;11.95;;;4.45;;
54454;SDS011;40364;52.270;10.546;2023-07-31T09:03:08;9.57;;;4.10;;
54454;SDS011;40364;52.270;10.546;2023-07-31T09:05:35;7.45;;;3.90;;
54454;SDS011;40364;52.270;10.546;2023-07-31T09:08:02;9.30;;;4.13;;
54454;SDS011;40364;52.270;10.546;2023-07-31T09:10:31;14.23;;;4.40;;
54454;SDS011;40364;52.270;10.546;2023-07-31T09:12:58;10.65;;;4.22;;
54454;SDS011;40364;52.270;10.546;2023-07-31T09:15:24;8.63;;;4.05;;
54454;SDS011;40364;52.270;10.546;2023-07-31T09:17:58;7.82;;;3.90;;
54454;SDS011;40364;52.270;10.546;2023-07-31T09:20:24;13.60;;;4.22;;
54454;SDS011;40364;52.270;10.546;2023-07-31T09:22:52;10.82;;;4.40;;
54454;SDS011;40364;52.270;10.546;2023-07-31T09:25:19;12.23;;;4.75;;
54454;SDS011;40364;52.270;10.546;2023-07-31T09:27:48;12.25;;;3.83;;
54454;SDS011;40364;52.270;10.546;2023-07-31T09:30:15;8.20;;;3.63;;
54454;SDS011;40364;52.270;10.546;2023-07-31T09:35:20;11.15;;;3.50;;
54454;SDS011;40364;52.270;10.546;2023-07-31T09:37:51;8.18;;;3.03;;
54454;SDS011;40364;52.270;10.546;2023-07-31T09:40:30;9.93;;;3.83;;
54454;SDS011;40364;52.270;10.546;2023-07-31T09:42:58;10.38;;;3.60;;
54454;SDS011;40364;52.270;10.546;2023-07-31T09:45:26;11.57;;;4.20;;
54454;SDS011;40364;52.270;10.546;2023-07-31T09:48:06;10.25;;;3.58;;
54454;SDS011;40364;52.270;10.546;2023-07-31T09:50:42;5.80;;;3.03;;
54454;SDS011;40364;52.270;10.546;2023-07-31T09:53:08;7.07;;;3.10;;
54454;SDS011;40364;52.270;10.546;2023-07-31T09:55:35;9.63;;;3.08;;
54454;SDS011;40364;52.270;10.546;2023-07-31T09:58:05;5.90;;;3.28;;
54454;SDS011;40364;52.270;10.546;2023-07-31T10:00:32;7.43;;;3.22;;
54454;SDS011;40364;52.270;10.546;2023-07-31T10:02:59;7.03;;;3.58;;
54454;SDS011;40364;52.270;10.546;2023-07-31T10:05:26;10.57;;;3.40;;
54454;SDS011;40364;52.270;10.546;2023-07-31T10:07:54;5.32;;;2.88;;
54454;SDS011;40364;52.270;10.546;2023-07-31T10:10:21;5.20;;;3.20;;
54454;SDS011;40364;52.270;10.546;2023-07-31T10:12:48;9.40;;;3.15;;
54454;SDS011;40364;52.270;10.546;2023-07-31T10:15:16;6.72;;;3.10;;
54454;SDS011;40364;52.270;10.546;2023-07-31T10:17:43;8.75;;;3.28;;
54454;SDS011;40364;52.270;10.546;2023-07-31T10:20:10;9.40;;;3.60;;
54454;SDS011;40364;52.270;10.546;2023-07-31T10:22:36;7.65;;;2.58;;
54454;SDS011;40364;52.270;10.546;2023-07-31T10:25:03;8.35;;;3.10;;
54454;SDS011;40364;52.270;10.546;2023-07-31T10:27:30;6.55;;;2.63;;
54454;SDS011;40364;52.270;10.546;2023-07-31T10:29:57;5.00;;;2.65;;
54454;SDS011;40364;52.270;10.546;2023-07-31T10:32:26;6.57;;;2.80;;
54454;SDS011;40364;52.270;10.546;2023-07-31T10:34:53;3.20;;;2.05;;
54454;SDS011;40364;52.270;10.546;2023-07-31T10:37:20;4.20;;;2.58;;
54454;SDS011;40364;52.270;10.546;2023-07-31T10:39:54;5.60;;;2.05;;
54454;SDS011;40364;52.270;10.546;2023-07-31T10:42:21;8.15;;;3.10;;
54454;SDS011;40364;52.270;10.546;2023-07-31T10:44:54;3.28;;;1.65;;
54454;SDS011;40364;52.270;10.546;2023-07-31T10:47:21;2.58;;;1.67;;
54454;SDS011;40364;52.270;10.546;2023-07-31T10:49:49;3.92;;;1.77;;
54454;SDS011;40364;52.270;10.546;2023-07-31T10:52:19;3.25;;;1.60;;
54454;SDS011;40364;52.270;10.546;2023-07-31T10:54:48;5.88;;;2.00;;
54454;SDS011;40364;52.270;10.546;2023-07-31T10:57:20;3.97;;;2.05;;
54454;SDS011;40364;52.270;10.546;2023-07-31T10:59:47;5.38;;;2.30;;
54454;SDS011;40364;52.270;10.546;2023-07-31T11:02:23;3.58;;;1.85;;
54454;SDS011;40364;52.270;10.546;2023-07-31T11:07:49;5.22;;;1.95;;
54454;SDS011;40364;52.270;10.546;2023-07-31T11:10:16;2.97;;;1.55;;
54454;SDS011;40364;52.270;10.546;2023-07-31T11:12:43;4.25;;;1.60;;
54454;SDS011;40364;52.270;10.546;2023-07-31T11:15:10;4.57;;;2.15;;
54454;SDS011;40364;52.270;10.546;2023-07-31T11:17:38;3.33;;;2.05;;
54454;SDS011;40364;52.270;10.546;2023-07-31T11:20:05;4.18;;;1.70;;
54454;SDS011;40364;52.270;10.546;2023-07-31T11:22:32;3.40;;;2.08;;
54454;SDS011;40364;52.270;10.546;2023-07-31T11:25:00;4.25;;;2.10;;
54454;SDS011;40364;52.270;10.546;2023-07-31T11:27:27;3.67;;;1.73;;
54454;SDS011;40364;52.270;10.546;2023-07-31T11:29:53;8.65;;;1.90;;
54454;SDS011;40364;52.270;10.546;2023-07-31T11:32:25;6.68;;;2.10;;
54454;SDS011;40364;52.270;10.546;2023-07-31T11:34:52;2.90;;;1.75;;
54454;SDS011;40364;52.270;10.546;2023-07-31T11:37:18;6.60;;;1.80;;
54454;SDS011;40364;52.270;10.546;2023-07-31T11:39:57;5.25;;;1.95;;
54454;SDS011;40364;52.270;10.546;2023-07-31T11:42:25;5.40;;;1.75;;
54454;SDS011;40364;52.270;10.546;2023-07-31T11:44:52;3.05;;;1.73;;
54454;SDS011;40364;52.270;10.546;2023-07-31T11:47:18;5.65;;;1.90;;
54454;SDS011;40364;52.270;10.546;2023-07-31T11:49:45;4.10;;;1.98;;
54454;SDS011;40364;52.270;10.546;2023-07-31T11:52:12;7.90;;;1.85;;
54454;SDS011;40364;52.270;10.546;2023-07-31T11:54:39;7.65;;;2.05;;
54454;SDS011;40364;52.270;10.546;2023-07-31T11:57:06;5.00;;;2.10;;
54454;SDS011;40364;52.270;10.546;2023-07-31T11:59:34;3.38;;;1.95;;
54454;SDS011;40364;52.270;10.546;2023-07-31T12:02:01;8.77;;;1.98;;
54454;SDS011;40364;52.270;10.546;2023-07-31T12:04:27;2.88;;;1.80;;
54454;SDS011;40364;52.270;10.546;2023-07-31T12:06:54;2.50;;;1.73;;
54454;SDS011;40364;52.270;10.546;2023-07-31T12:09:20;2.65;;;1.35;;
54454;SDS011;40364;52.270;10.546;2023-07-31T12:11:46;4.90;;;1.77;;
54454;SDS011;40364;52.270;10.546;2023-07-31T12:14:20;4.60;;;1.80;;
54454;SDS011;40364;52.270;10.546;2023-07-31T12:16:49;4.55;;;1.95;;
54454;SDS011;40364;52.270;10.546;2023-07-31T12:19:18;3.03;;;1.70;;
54454;SDS011;40364;52.270;10.546;2023-07-31T12:21:45;3.97;;;1.60;;
54454;SDS011;40364;52.270;10.546;2023-07-31T12:24:11;3.47;;;1.80;;
54454;SDS011;40364;52.270;10.546;2023-07-31T12:26:38;5.45;;;2.17;;
54454;SDS011;40364;52.270;10.546;2023-07-31T12:29:05;3.35;;;1.80;;
54454;SDS011;40364;52.270;10.546;2023-07-31T12:31:33;3.90;;;1.77;;
54454;SDS011;40364;52.270;10.546;2023-07-31T12:34:01;2.97;;;1.50;;
54454;SDS011;40364;52.270;10.546;2023-07-31T12:36:28;4.20;;;1.77;;
54454;SDS011;40364;52.270;10.546;2023-07-31T12:38:55;2.97;;;1.52;;
54454;SDS011;40364;52.270;10.546;2023-07-31T12:41:23;3.95;;;2.05;;
54454;SDS011;40364;52.270;10.546;2023-07-31T12:43:50;3.67;;;1.73;;
54454;SDS011;40364;52.270;10.546;2023-07-31T12:46:16;4.43;;;1.50;;
54454;SDS011;40364;52.270;10.546;2023-07-31T12:48:43;4.65;;;1.55;;
54454;SDS011;40364;52.270;10.546;2023-07-31T12:51:10;3.55;;;1.75;;
54454;SDS011;40364;52.270;10.546;2023-07-31T12:53:37;1.75;;;1.23;;
54454;SDS011;40364;52.270;10.546;2023-07-31T12:56:03;1.40;;;1.20;;
54454;SDS011;40364;52.270;10.546;2023-07-31T12:58:30;4.72;;;1.60;;
54454;SDS011;40364;52.270;10.546;2023-07-31T13:00:56;3.28;;;1.75;;
54454;SDS011;40364;52.270;10.546;2023-07-31T13:03:22;3.10;;;1.58;;
54454;SDS011;40364;52.270;10.546;2023-07-31T13:05:49;3.30;;;1.55;;
54454;SDS011;40364;52.270;10.546;2023-07-31T13:08:18;2.38;;;1.50;;
54454;SDS011;40364;52.270;10.546;2023-07-31T13:10:45;2.17;;;1.40;;
54454;SDS011;40364;52.270;10.546;2023-07-31T13:13:11;2.05;;;1.33;;
54454;SDS011;40364;52.270;10.546;2023-07-31T13:15:37;2.83;;;1.38;;
54454;SDS011;40364;52.270;10.546;2023-07-31T13:18:04;3.30;;;1.40;;
54454;SDS011;40364;52.270;10.546;2023-07-31T13:20:30;3.03;;;1.42;;
54454;SDS011;40364;52.270;10.546;2023-07-31T13:22:57;5.03;;;1.13;;
54454;SDS011;40364;52.270;10.546;2023-07-31T13:25:24;2.88;;;1.60;;
54454;SDS011;40364;52.270;10.546;2023-07-31T13:27:51;2.28;;;1.08;;
54454;SDS011;40364;52.270;10.546;2023-07-31T13:30:17;1.85;;;1.20;;
54454;SDS011;40364;52.270;10.546;2023-07-31T13:32:44;1.92;;;1.20;;
54454;SDS011;40364;52.270;10.546;2023-07-31T13:35:10;1.88;;;1.20;;
54454;SDS011;40364;52.270;10.546;2023-07-31T13:37:37;4.93;;;1.50;;
54454;SDS011;40364;52.270;10.546;2023-07-31T13:40:04;1.40;;;1.02;;
54454;SDS011;40364;52.270;10.546;2023-07-31T13:42:32;2.10;;;1.20;;
54454;SDS011;40364;52.270;10.546;2023-07-31T13:44:58;2.78;;;1.05;;
54454;SDS011;40364;52.270;10.546;2023-07-31T13:47:25;1.95;;;0.70;;
54454;SDS011;40364;52.270;10.546;2023-07-31T13:49:51;0.93;;;0.70;;
54454;SDS011;40364;52.270;10.546;2023-07-31T13:52:18;1.23;;;0.50;;
54454;SDS011;40364;52.270;10.546;2023-07-31T13:54:44;1.58;;;0.60;;
54454;SDS011;40364;52.270;10.546;2023-07-31T13:57:11;1.48;;;0.40;;
54454;SDS011;40364;52.270;10.546;2023-07-31T13:59:40;0.60;;;0.50;;
54454;SDS011;40364;52.270;10.546;2023-07-31T14:02:07;2.05;;;0.70;;
54454;SDS011;40364;52.270;10.546;2023-07-31T14:04:33;1.67;;;0.57;;
54454;SDS011;40364;52.270;10.546;2023-07-31T14:06:59;1.75;;;0.75;;
54454;SDS011;40364;52.270;10.546;2023-07-31T14:09:26;1.88;;;0.52;;
54454;SDS011;40364;52.270;10.546;2023-07-31T14:11:53;0.45;;;0.40;;
54454;SDS011;40364;52.270;10.546;2023-07-31T14:14:19;0.52;;;0.40;;
54454;SDS011;40364;52.270;10.546;2023-07-31T14:16:47;0.77;;;0.50;;
54454;SDS011;40364;52.270;10.546;2023-07-31T14:19:13;1.88;;;0.43;;
54454;SDS011;40364;52.270;10.546;2023-07-31T14:21:39;1.35;;;0.60;;
54454;SDS011;40364;52.270;10.546;2023-07-31T14:24:05;2.72;;;0.50;;
54454;SDS011;40364;52.270;10.546;2023-07-31T14:26:32;0.85;;;0.50;;
54454;SDS011;40364;52.270;10.546;2023-07-31T14:28:58;1.33;;;0.50;;
54454;SDS011;40364;52.270;10.546;2023-07-31T14:31:25;0.35;;;0.35;;
54454;SDS011;40364;52.270;10.546;2023-07-31T14:33:52;1.33;;;0.50;;
54454;SDS011;40364;52.270;10.546;2023-07-31T14:36:19;1.25;;;0.60;;
54454;SDS011;40364;52.270;10.546;2023-07-31T14:38:45;1.58;;;0.50;;